createdAt,value
2019-05-16T00:01:01.648Z,93.20
2019-05-16T00:03:28.162Z,93.10
2019-05-16T00:05:54.788Z,92.90
2019-05-16T00:08:21.176Z,93.20
2019-05-16T00:10:48.687Z,93.30
2019-05-16T00:13:18.606Z,93.70
2019-05-16T00:15:45.041Z,93.80
2019-05-16T00:18:11.200Z,93.30
2019-05-16T00:20:38.643Z,93.60
2019-05-16T00:23:05.105Z,93.70
2019-05-16T00:25:31.669Z,93.70
2019-05-16T00:27:58.654Z,93.70
2019-05-16T00:30:25.231Z,93.70
2019-05-16T00:32:51.521Z,93.70
2019-05-16T00:35:18.355Z,93.50
2019-05-16T00:37:44.831Z,93.50
2019-05-16T00:40:11.290Z,93.60
2019-05-16T00:42:39.135Z,93.70
2019-05-16T00:45:08.889Z,93.60
2019-05-16T00:47:34.916Z,93.40
2019-05-16T00:50:01.413Z,92.90
2019-05-16T00:52:28.936Z,92.60
2019-05-16T00:54:58.025Z,92.50
2019-05-16T00:57:25.331Z,92.70
2019-05-16T00:59:52.294Z,93.00
2019-05-16T01:02:18.493Z,92.50
2019-05-16T01:04:44.678Z,92.50
2019-05-16T01:07:11.156Z,92.50
2019-05-16T01:09:38.556Z,92.30
2019-05-16T01:12:24.933Z,92.40
2019-05-16T01:14:51.187Z,92.30
2019-05-16T01:17:18.237Z,92.00
2019-05-16T01:19:44.673Z,92.20
2019-05-16T01:22:10.892Z,92.20
2019-05-16T01:24:38.660Z,92.30
2019-05-16T01:27:05.192Z,92.10
2019-05-16T01:29:31.365Z,92.10
2019-05-16T01:31:58.985Z,92.20
2019-05-16T01:34:25.420Z,92.30
2019-05-16T01:36:51.594Z,92.40
2019-05-16T01:39:18.313Z,92.40
2019-05-16T01:41:44.712Z,92.40
2019-05-16T01:44:10.928Z,92.70
2019-05-16T01:46:39.116Z,92.80
2019-05-16T01:49:05.166Z,92.70
2019-05-16T01:51:31.340Z,93.00
2019-05-16T01:53:58.040Z,92.90
2019-05-16T01:56:24.319Z,93.10
2019-05-16T01:58:50.514Z,93.10
2019-05-16T02:01:19.050Z,92.90
2019-05-16T02:03:45.027Z,92.80
2019-05-16T02:06:11.391Z,92.70
2019-05-16T02:08:38.067Z,92.70
2019-05-16T02:11:04.331Z,92.80
2019-05-16T02:13:30.486Z,92.50
2019-05-16T02:15:59.051Z,92.70
2019-05-16T02:18:24.767Z,92.70
2019-05-16T02:20:50.977Z,92.70
2019-05-16T02:23:18.739Z,92.90
2019-05-16T02:25:45.214Z,93.10
2019-05-16T02:28:11.404Z,93.30
2019-05-16T02:30:37.770Z,93.20
2019-05-16T02:33:05.753Z,93.00
2019-05-16T02:35:31.938Z,93.00
2019-05-16T02:38:00.736Z,92.90
2019-05-16T02:40:26.581Z,92.90
2019-05-16T02:42:55.954Z,92.90
2019-05-16T02:45:24.643Z,93.10
2019-05-16T02:47:51.351Z,93.00
2019-05-16T02:50:18.009Z,93.00
2019-05-16T02:52:44.174Z,93.00
2019-05-16T02:55:11.625Z,92.90
2019-05-16T02:57:41.519Z,93.00
2019-05-16T03:00:12.061Z,93.10
2019-05-16T03:02:37.502Z,93.10
2019-05-16T03:05:04.991Z,93.20
2019-05-16T03:07:40.609Z,93.00
2019-05-16T03:10:01.616Z,93.10
2019-05-16T03:12:30.903Z,93.10
2019-05-16T03:15:01.834Z,93.20
2019-05-16T03:17:26.546Z,92.90
2019-05-16T03:19:56.589Z,92.80
2019-05-16T03:22:24.573Z,93.00
2019-05-16T03:24:51.508Z,93.40
2019-05-16T03:27:21.354Z,93.20
2019-05-16T03:29:46.031Z,93.50
2019-05-16T03:32:13.895Z,93.40
2019-05-16T03:34:43.865Z,93.30
2019-05-16T03:37:13.568Z,93.40
2019-05-16T03:39:36.478Z,93.50
2019-05-16T03:42:02.644Z,93.50
2019-05-16T03:44:31.766Z,93.50
2019-05-16T03:46:56.941Z,93.50
2019-05-16T03:49:23.126Z,93.40
2019-05-16T03:51:50.610Z,93.40
2019-05-16T03:54:16.908Z,93.50
2019-05-16T03:56:43.223Z,93.40
2019-05-16T03:59:11.099Z,93.20
2019-05-16T04:01:40.667Z,93.20
2019-05-16T04:04:05.587Z,93.30
2019-05-16T04:06:32.851Z,93.20
2019-05-16T04:09:01.518Z,93.20
2019-05-16T04:11:27.247Z,93.20
2019-05-16T04:13:53.468Z,93.50
2019-05-16T04:16:20.912Z,93.70
2019-05-16T04:18:47.552Z,93.30
2019-05-16T04:21:17.564Z,93.10
2019-05-16T04:23:42.841Z,92.90
2019-05-16T04:26:11.263Z,92.60
2019-05-16T04:28:37.111Z,92.60
2019-05-16T04:31:03.270Z,92.30
2019-05-16T04:33:30.843Z,92.20
2019-05-16T04:35:57.484Z,92.10
2019-05-16T04:38:40.287Z,92.10
2019-05-16T04:40:51.929Z,92.10
2019-05-16T04:43:22.164Z,92.20
2019-05-16T04:45:47.259Z,91.90
2019-05-16T04:48:13.528Z,91.30
2019-05-16T04:50:41.917Z,90.90
2019-05-16T04:53:07.782Z,90.40
2019-05-16T04:55:34.003Z,89.60
2019-05-16T04:58:01.438Z,89.90
2019-05-16T05:00:31.596Z,90.00
2019-05-16T05:02:56.182Z,90.10
2019-05-16T05:05:22.340Z,90.40
2019-05-16T05:07:51.131Z,90.40
2019-05-16T05:10:16.760Z,90.10
2019-05-16T05:12:42.995Z,89.40
2019-05-16T05:15:11.153Z,89.50
2019-05-16T05:17:37.894Z,89.10
2019-05-16T05:20:05.781Z,88.50
2019-05-16T05:22:31.960Z,87.50
2019-05-16T05:25:00.068Z,86.60
2019-05-16T05:27:26.259Z,86.90
2019-05-16T05:29:52.458Z,87.20
2019-05-16T05:32:20.079Z,86.60
2019-05-16T05:34:46.508Z,86.00
2019-05-16T05:37:12.887Z,85.00
2019-05-16T05:39:39.669Z,83.50
2019-05-16T05:42:06.064Z,84.30
2019-05-16T05:44:32.282Z,82.50
2019-05-16T05:47:00.521Z,82.90
2019-05-16T05:49:27.113Z,82.50
2019-05-16T05:51:53.323Z,82.80
2019-05-16T05:54:20.343Z,83.20
2019-05-16T05:56:46.877Z,81.90
2019-05-16T05:59:13.064Z,81.00
2019-05-16T06:01:40.722Z,80.50
2019-05-16T06:04:10.418Z,79.80
2019-05-16T06:06:36.317Z,80.40
2019-05-16T06:09:04.708Z,80.00
2019-05-16T06:11:30.875Z,78.20
2019-05-16T06:13:57.075Z,76.60
2019-05-16T06:16:23.251Z,72.30
2019-05-16T06:18:50.318Z,68.90
2019-05-16T06:21:16.827Z,66.40
2019-05-16T06:23:43.046Z,63.20
2019-05-16T06:26:12.043Z,63.80
2019-05-16T06:28:37.327Z,62.40
2019-05-16T06:31:03.505Z,62.60
2019-05-16T06:33:30.486Z,63.00
2019-05-16T06:35:56.977Z,64.20
2019-05-16T06:38:23.151Z,65.00
2019-05-16T06:40:52.202Z,66.90
2019-05-16T06:43:17.380Z,70.30
2019-05-16T06:45:43.879Z,70.30
2019-05-16T06:48:10.149Z,72.60
2019-05-16T06:50:36.452Z,72.80
2019-05-16T06:53:02.910Z,71.20
2019-05-16T06:55:30.198Z,73.00
2019-05-16T06:57:57.381Z,71.90
2019-05-16T07:00:23.927Z,71.00
2019-05-16T07:02:50.453Z,69.70
2019-05-16T07:05:16.752Z,66.70
2019-05-16T07:07:44.073Z,65.90
2019-05-16T07:10:10.349Z,66.00
2019-05-16T07:12:36.605Z,61.20
2019-05-16T07:15:06.885Z,59.50
2019-05-16T07:17:33.141Z,50.60
2019-05-16T07:20:00.809Z,42.60
2019-05-16T07:22:27.211Z,40.30
2019-05-16T07:24:53.365Z,42.50
2019-05-16T07:27:21.894Z,43.90
2019-05-16T07:29:47.675Z,45.80
2019-05-16T07:32:13.941Z,44.80
2019-05-16T07:34:40.406Z,45.70
2019-05-16T07:37:06.840Z,47.20
2019-05-16T07:39:33.112Z,49.40
2019-05-16T07:41:59.992Z,52.30
2019-05-16T07:44:26.409Z,50.80
2019-05-16T07:46:52.672Z,53.20
2019-05-16T07:49:19.737Z,53.30
2019-05-16T07:51:46.107Z,51.50
2019-05-16T07:54:12.297Z,50.60
2019-05-16T07:56:40.751Z,50.20
2019-05-16T07:59:06.533Z,52.30
2019-05-16T08:01:32.768Z,51.80
2019-05-16T08:03:59.998Z,51.70
2019-05-16T08:06:26.449Z,52.80
2019-05-16T08:08:52.626Z,50.50
2019-05-16T08:11:20.536Z,50.60
2019-05-16T08:13:46.914Z,49.10
2019-05-16T08:16:13.105Z,43.70
2019-05-16T08:18:44.719Z,45.50
2019-05-16T08:21:07.365Z,41.10
2019-05-16T08:23:33.747Z,31.40
2019-05-16T08:26:01.148Z,25.30
2019-05-16T08:28:30.807Z,23.60
2019-05-16T08:30:57.146Z,23.60
2019-05-16T08:33:23.397Z,23.60
2019-05-16T08:38:21.110Z,30.90
2019-05-16T08:41:04.675Z,35.00
2019-05-16T08:43:14.093Z,38.00
2019-05-16T08:48:11.317Z,38.40
2019-05-16T08:50:36.708Z,40.20
2019-05-16T08:53:12.897Z,43.10
2019-05-16T08:55:37.220Z,45.60
2019-05-16T08:58:03.404Z,47.10
2019-05-16T09:00:33.450Z,48.40
2019-05-16T09:03:01.455Z,47.00
2019-05-16T09:05:25.761Z,48.50
2019-05-16T09:10:31.460Z,28.10
2019-05-16T09:10:31.604Z,38.50
2019-05-16T09:10:32.874Z,48.80
2019-05-16T09:12:48.690Z,51.90
2019-05-16T09:15:17.111Z,51.00
2019-05-16T09:17:43.200Z,52.70
2019-05-16T09:20:09.860Z,52.60
2019-05-16T09:22:37.808Z,51.80
2019-05-16T09:25:08.086Z,51.70
2019-05-16T09:27:33.666Z,51.90
2019-05-16T09:29:59.853Z,51.80
2019-05-16T09:32:27.868Z,51.90
2019-05-16T09:34:56.980Z,51.60
2019-05-16T09:37:22.260Z,50.90
2019-05-16T09:39:48.762Z,49.50
2019-05-16T09:42:17.142Z,48.90
2019-05-16T09:44:43.210Z,49.50
2019-05-16T09:47:09.369Z,49.20
2019-05-16T09:49:37.138Z,48.10
2019-05-16T09:52:03.871Z,47.80
2019-05-16T09:54:30.104Z,47.20
2019-05-16T09:56:57.135Z,43.90
2019-05-16T09:59:23.574Z,44.50
2019-05-16T10:01:49.794Z,44.00
2019-05-16T10:04:17.449Z,45.30
2019-05-16T10:06:43.864Z,46.20
2019-05-16T10:09:10.038Z,44.00
2019-05-16T10:11:42.082Z,41.20
2019-05-16T10:14:07.076Z,40.80
2019-05-16T10:16:32.872Z,39.60
2019-05-16T10:18:59.051Z,37.80
2019-05-16T10:21:27.148Z,37.00
2019-05-16T10:23:53.340Z,37.80
2019-05-16T10:26:19.637Z,40.00
2019-05-16T10:28:46.853Z,39.70
2019-05-16T10:31:13.154Z,38.00
2019-05-16T10:33:39.458Z,38.40
2019-05-16T10:36:08.163Z,37.10
2019-05-16T10:38:33.743Z,35.10
2019-05-16T10:40:59.920Z,34.10
2019-05-16T10:43:26.580Z,34.40
2019-05-16T10:45:53.777Z,34.90
2019-05-16T10:48:20.218Z,37.60
2019-05-16T10:50:47.831Z,38.70
2019-05-16T10:53:33.524Z,35.80
2019-05-16T10:55:42.749Z,38.00
2019-05-16T10:58:09.126Z,38.10
2019-05-16T11:01:05.109Z,36.30
2019-05-16T11:03:03.544Z,35.30
2019-05-16T11:05:35.885Z,36.70
2019-05-16T11:07:57.978Z,37.20
2019-05-16T11:10:26.903Z,39.50
2019-05-16T11:12:55.624Z,42.10
2019-05-16T11:15:20.646Z,42.00
2019-05-16T11:17:46.864Z,39.90
2019-05-16T11:20:19.798Z,39.00
2019-05-16T11:22:47.561Z,40.10
2019-05-16T11:25:24.773Z,41.10
2019-05-16T11:27:41.339Z,41.00
2019-05-16T11:30:08.440Z,42.50
2019-05-16T11:32:37.288Z,44.40
2019-05-16T11:35:07.417Z,46.00
2019-05-16T11:37:37.521Z,46.80
2019-05-16T11:40:06.751Z,46.80
2019-05-16T11:42:37.526Z,44.00
2019-05-16T11:45:09.224Z,41.60
2019-05-16T11:47:36.825Z,38.50
2019-05-16T11:50:08.472Z,36.20
2019-05-16T11:52:34.758Z,38.40
2019-05-16T11:55:03.873Z,40.10
2019-05-16T11:57:30.788Z,43.40
2019-05-16T11:59:56.974Z,44.20
2019-05-16T12:02:23.359Z,44.00
2019-05-16T12:04:49.554Z,44.90
2019-05-16T12:07:19.204Z,46.50
2019-05-16T12:09:50.023Z,44.50
2019-05-16T12:12:11.961Z,47.80
2019-05-16T12:14:38.760Z,49.40
2019-05-16T12:17:07.268Z,49.40
2019-05-16T12:19:37.731Z,50.20
2019-05-16T12:22:02.361Z,48.80
2019-05-16T12:24:36.472Z,49.30
2019-05-16T12:26:56.872Z,50.10
2019-05-16T12:29:27.930Z,52.60
2019-05-16T12:31:58.514Z,50.90
2019-05-16T12:34:21.033Z,51.10
2019-05-16T12:36:47.429Z,50.90
2019-05-16T12:39:13.807Z,53.50
2019-05-16T12:41:41.434Z,53.60
2019-05-16T12:44:08.156Z,55.40
2019-05-16T12:46:36.554Z,55.90
2019-05-16T12:49:03.211Z,56.70
2019-05-16T12:51:29.422Z,56.20
2019-05-16T12:53:57.208Z,57.90
2019-05-16T12:56:23.655Z,57.20
2019-05-16T12:58:50.946Z,57.90
2019-05-16T13:01:20.436Z,58.00
2019-05-16T13:03:47.982Z,58.50
2019-05-16T13:06:13.487Z,59.20
2019-05-16T13:08:39.661Z,59.60
2019-05-16T13:11:07.056Z,61.40
2019-05-16T13:13:33.785Z,62.20
2019-05-16T13:15:59.940Z,61.60
2019-05-16T13:18:27.574Z,62.10
2019-05-16T13:20:54.019Z,62.80
2019-05-16T13:23:20.221Z,62.10
2019-05-16T13:25:48.071Z,63.20
2019-05-16T13:28:14.927Z,62.70
2019-05-16T13:30:41.149Z,62.90
2019-05-16T13:33:08.408Z,61.70
2019-05-16T13:35:36.913Z,62.30
2019-05-16T13:38:02.674Z,63.80
2019-05-16T13:40:28.826Z,63.50
2019-05-16T13:42:57.190Z,63.20
2019-05-16T13:45:23.123Z,62.30
2019-05-16T13:47:49.360Z,62.00
2019-05-16T13:50:16.831Z,62.50
2019-05-16T13:52:43.271Z,61.60
2019-05-16T13:55:09.746Z,61.70
2019-05-16T13:57:37.411Z,61.70
2019-05-16T14:00:07.560Z,60.80
2019-05-16T14:02:37.541Z,61.90
2019-05-16T14:05:07.691Z,62.00
2019-05-16T14:07:37.040Z,61.10
2019-05-16T14:10:05.347Z,62.10
2019-05-16T14:12:31.697Z,63.40
2019-05-16T14:14:57.860Z,63.70
2019-05-16T14:17:24.056Z,64.70
2019-05-16T14:19:50.317Z,64.50
2019-05-16T14:22:17.535Z,65.00
2019-05-16T14:24:44.099Z,65.20
2019-05-16T14:27:10.292Z,66.00
2019-05-16T14:29:37.702Z,66.60
2019-05-16T14:32:04.220Z,66.40
2019-05-16T14:34:30.709Z,66.20
2019-05-16T14:36:57.876Z,66.80
2019-05-16T14:39:28.093Z,65.90
2019-05-16T14:41:52.350Z,65.90
2019-05-16T14:44:18.672Z,65.50
2019-05-16T14:46:47.460Z,65.30
2019-05-16T14:49:13.406Z,64.70
2019-05-16T14:51:39.700Z,63.90
2019-05-16T14:54:07.449Z,63.20
2019-05-16T14:56:34.042Z,64.10
2019-05-16T14:59:00.203Z,64.00
2019-05-16T15:01:47.274Z,64.30
2019-05-16T15:04:13.446Z,65.50
2019-05-16T15:06:40.734Z,65.40
2019-05-16T15:09:07.746Z,65.40
2019-05-16T15:11:34.078Z,65.60
2019-05-16T15:14:00.384Z,66.70
2019-05-16T15:16:27.326Z,65.50
2019-05-16T15:18:53.867Z,66.20
2019-05-16T15:21:20.098Z,66.10
2019-05-16T15:23:47.219Z,66.90
2019-05-16T15:26:13.409Z,66.70
2019-05-16T15:28:39.722Z,67.90
2019-05-16T15:31:07.012Z,68.30
2019-05-16T15:33:36.519Z,68.60
2019-05-16T15:36:02.699Z,68.30
2019-05-16T15:38:29.137Z,68.90
2019-05-16T15:40:57.396Z,69.60
2019-05-16T15:43:23.481Z,70.00
2019-05-16T15:45:52.955Z,70.70
2019-05-16T15:48:17.906Z,71.40
2019-05-16T15:50:44.177Z,71.80
2019-05-16T15:53:11.574Z,72.10
2019-05-16T15:55:37.936Z,71.50
2019-05-16T15:58:09.787Z,72.10
2019-05-16T16:00:48.253Z,72.40
2019-05-16T16:03:17.530Z,73.30
2019-05-16T16:05:44.341Z,73.20
2019-05-16T16:08:10.999Z,72.90
2019-05-16T16:10:39.245Z,72.40
2019-05-16T16:13:06.837Z,73.50
2019-05-16T16:15:34.094Z,73.20
2019-05-16T16:18:00.297Z,73.80
2019-05-16T16:20:27.311Z,73.60
2019-05-16T16:22:53.707Z,74.40
2019-05-16T16:25:19.947Z,74.60
2019-05-16T16:27:46.196Z,74.60
2019-05-16T16:30:13.031Z,74.40
2019-05-16T16:32:39.419Z,75.00
2019-05-16T16:35:08.082Z,75.40
2019-05-16T16:37:34.153Z,76.00
2019-05-16T16:40:00.310Z,76.10
2019-05-16T16:42:27.236Z,76.60
2019-05-16T16:44:53.704Z,76.30
2019-05-16T16:47:19.876Z,77.00
2019-05-16T16:49:46.062Z,76.80
2019-05-16T16:52:12.468Z,76.40
2019-05-16T16:54:38.716Z,76.90
2019-05-16T16:57:07.507Z,77.80
2019-05-16T16:59:33.135Z,78.00
2019-05-16T17:01:59.383Z,77.60
2019-05-16T17:04:26.699Z,77.70
2019-05-16T17:06:53.048Z,78.40
2019-05-16T17:09:19.229Z,78.50
2019-05-16T17:11:46.528Z,78.70
2019-05-16T17:14:13.031Z,79.50
2019-05-16T17:16:39.279Z,79.90
2019-05-16T17:19:07.668Z,79.90
2019-05-16T17:21:33.655Z,80.00
2019-05-16T17:23:59.841Z,81.00
2019-05-16T17:26:27.589Z,80.30
2019-05-16T17:28:54.052Z,80.40
2019-05-16T17:31:20.252Z,80.60
2019-05-16T17:33:46.445Z,81.90
2019-05-16T17:36:13.008Z,81.10
2019-05-16T17:38:39.246Z,81.30
2019-05-16T17:41:07.468Z,81.60
2019-05-16T17:43:33.710Z,81.30
2019-05-16T17:45:59.968Z,81.40
2019-05-16T17:48:29.605Z,81.10
2019-05-16T17:50:54.319Z,81.70
2019-05-16T17:53:20.601Z,82.30
2019-05-16T17:55:47.464Z,82.40
2019-05-16T17:58:13.808Z,82.10
2019-05-16T18:00:40.087Z,82.20
2019-05-16T18:03:06.809Z,82.70
2019-05-16T18:05:33.203Z,82.90
2019-05-16T18:07:59.501Z,82.50
2019-05-16T18:10:27.093Z,82.80
2019-05-16T18:12:53.617Z,82.70
2019-05-16T18:15:20.708Z,82.70
2019-05-16T18:17:47.128Z,83.40
2019-05-16T18:20:13.808Z,83.20
2019-05-16T18:22:39.980Z,83.90
2019-05-16T18:25:07.413Z,84.10
2019-05-16T18:27:33.578Z,83.80
2019-05-16T18:29:59.743Z,84.00
2019-05-16T18:32:26.567Z,83.80
2019-05-16T18:34:53.001Z,84.00
2019-05-16T18:37:19.196Z,84.40
2019-05-16T18:39:47.275Z,85.30
2019-05-16T18:42:13.784Z,85.20
2019-05-16T18:44:39.960Z,85.40
2019-05-16T18:47:10.484Z,85.30
2019-05-16T18:49:36.589Z,85.60
2019-05-16T18:52:03.466Z,85.50
2019-05-16T18:54:29.626Z,86.10
2019-05-16T18:56:57.866Z,85.00
2019-05-16T18:59:26.098Z,85.30
2019-05-16T19:01:52.085Z,85.50
2019-05-16T19:04:18.487Z,85.30
2019-05-16T19:06:44.837Z,85.30
2019-05-16T19:09:11.027Z,85.30
2019-05-16T19:11:37.393Z,85.50
2019-05-16T19:14:03.677Z,85.90
2019-05-16T19:16:29.918Z,86.60
2019-05-16T19:18:56.560Z,86.70
2019-05-16T19:21:26.133Z,86.90
2019-05-16T19:23:52.854Z,86.70
2019-05-16T19:26:19.599Z,87.00
2019-05-16T19:28:46.698Z,87.10
2019-05-16T19:31:14.294Z,87.30
2019-05-16T19:33:40.532Z,87.60
2019-05-16T19:36:07.434Z,87.70
2019-05-16T19:38:33.856Z,87.90
2019-05-16T19:41:00.041Z,88.00
2019-05-16T19:43:26.633Z,88.10
2019-05-16T19:45:53.114Z,88.30
2019-05-16T19:48:19.273Z,88.70
2019-05-16T19:50:46.413Z,89.10
2019-05-16T19:53:12.705Z,89.00
2019-05-16T19:55:38.909Z,89.20
2019-05-16T19:58:06.898Z,89.60
2019-05-16T20:00:33.190Z,89.50
2019-05-16T20:02:59.371Z,89.60
2019-05-16T20:05:26.688Z,89.20
2019-05-16T20:07:53.276Z,89.60
2019-05-16T20:10:19.646Z,89.80
2019-05-16T20:12:46.342Z,90.00
2019-05-16T20:15:13.426Z,90.00
2019-05-16T20:17:51.005Z,90.00
2019-05-16T20:20:08.730Z,90.10
2019-05-16T20:22:36.945Z,90.10
2019-05-16T20:25:04.775Z,90.00
2019-05-16T20:27:31.164Z,90.10
2019-05-16T20:29:59.425Z,90.00
2019-05-16T20:32:27.519Z,90.00
2019-05-16T20:34:53.506Z,90.10
2019-05-16T20:37:19.704Z,90.20
2019-05-16T20:39:46.591Z,89.80
2019-05-16T20:42:13.962Z,90.30
2019-05-16T20:44:40.117Z,90.20
2019-05-16T20:47:07.247Z,90.30
2019-05-16T20:49:33.618Z,90.20
2019-05-16T20:51:59.804Z,90.40
2019-05-16T20:54:26.834Z,90.60
2019-05-16T20:56:53.174Z,90.70
2019-05-16T20:59:19.364Z,90.80
2019-05-16T21:01:46.513Z,91.00
2019-05-16T21:04:13.616Z,91.10
2019-05-16T21:06:39.801Z,91.00
2019-05-16T21:09:06.728Z,90.90
2019-05-16T21:11:33.201Z,91.00
2019-05-16T21:13:59.385Z,91.10
2019-05-16T21:16:27.045Z,91.20
2019-05-16T21:18:53.602Z,91.10
2019-05-16T21:21:19.756Z,91.20
2019-05-16T21:23:46.983Z,91.10
2019-05-16T21:26:13.304Z,91.00
2019-05-16T21:28:39.614Z,90.90
2019-05-16T21:31:07.423Z,90.90
2019-05-16T21:33:36.230Z,91.00
2019-05-16T21:36:02.309Z,90.90
2019-05-16T21:38:28.613Z,91.10
2019-05-16T21:40:58.171Z,91.20
2019-05-16T21:43:22.862Z,91.20
2019-05-16T21:45:49.039Z,91.20
2019-05-16T21:48:19.199Z,91.20
2019-05-16T21:50:46.306Z,91.10
2019-05-16T21:53:12.555Z,91.20
2019-05-16T21:55:38.758Z,91.20
2019-05-16T21:58:04.951Z,91.30
2019-05-16T22:00:37.507Z,91.00
2019-05-16T22:03:04.322Z,91.20
2019-05-16T22:05:30.813Z,91.10
2019-05-16T22:07:56.998Z,91.40
2019-05-16T22:10:23.320Z,91.60
2019-05-16T22:12:51.388Z,92.20
2019-05-16T22:15:17.673Z,92.10
2019-05-16T22:17:47.142Z,92.20
2019-05-16T22:20:16.592Z,92.10
2019-05-16T22:22:43.098Z,92.30
2019-05-16T22:25:09.781Z,92.40
2019-05-16T22:27:36.033Z,92.40
2019-05-16T22:30:09.001Z,92.50
2019-05-16T22:32:36.334Z,92.50
2019-05-16T22:35:07.894Z,92.60
2019-05-16T22:37:46.133Z,92.70
2019-05-16T22:40:02.767Z,93.00
2019-05-16T22:42:29.177Z,93.00
2019-05-16T22:44:56.362Z,92.90
2019-05-16T22:47:22.558Z,92.70
2019-05-16T22:49:48.717Z,93.00
2019-05-16T22:52:17.048Z,93.20
2019-05-16T22:54:42.989Z,93.20
2019-05-16T22:57:09.178Z,93.40
2019-05-16T22:59:35.374Z,93.50
2019-05-16T23:02:02.802Z,93.40
2019-05-16T23:04:29.096Z,93.40
2019-05-16T23:06:56.472Z,93.50
2019-05-16T23:09:22.904Z,93.70
2019-05-16T23:11:49.169Z,93.80
2019-05-16T23:14:17.027Z,93.70
2019-05-16T23:16:43.418Z,93.50
2019-05-16T23:19:09.599Z,93.70
2019-05-16T23:21:36.787Z,93.80
2019-05-16T23:24:03.718Z,93.60
2019-05-16T23:26:29.890Z,93.50
2019-05-16T23:28:56.518Z,94.00
2019-05-16T23:31:22.898Z,93.90
2019-05-16T23:33:49.390Z,93.70
2019-05-16T23:36:17.466Z,93.80
2019-05-16T23:38:44.280Z,94.10
2019-05-16T23:41:10.486Z,94.60
2019-05-16T23:43:37.271Z,94.70
2019-05-16T23:46:03.901Z,94.70
2019-05-16T23:48:30.060Z,94.70
2019-05-16T23:50:56.940Z,94.60
2019-05-16T23:53:23.248Z,94.50
2019-05-16T23:55:49.401Z,94.70
2019-05-16T23:58:15.577Z,94.60
